createdAt,value
2017-12-02T00:00:15.737Z,44.03
2017-12-02T00:02:42.487Z,41.33
2017-12-02T00:05:09.663Z,40.87
2017-12-02T00:07:36.097Z,38.65
2017-12-02T00:10:02.895Z,37.35
2017-12-02T00:12:29.333Z,39.85
2017-12-02T00:14:55.750Z,40.15
2017-12-02T00:17:22.204Z,35.35
2017-12-02T00:19:48.643Z,33.10
2017-12-02T00:22:15.057Z,34.83
2017-12-02T00:24:41.566Z,34.78
2017-12-02T00:27:08.003Z,30.85
2017-12-02T00:29:34.515Z,29.00
2017-12-02T00:32:01.202Z,36.10
2017-12-02T00:34:27.632Z,27.60
2017-12-02T00:36:54.039Z,27.73
2017-12-02T00:39:20.495Z,30.67
2017-12-02T00:41:46.919Z,36.85
2017-12-02T00:44:13.342Z,31.30
2017-12-02T00:46:39.803Z,36.75
2017-12-02T00:49:06.858Z,30.90
2017-12-02T00:51:33.581Z,23.55
2017-12-02T00:54:00.746Z,28.83
2017-12-02T00:56:27.959Z,30.10
2017-12-02T00:58:54.382Z,28.55
2017-12-02T01:01:20.879Z,28.57
2017-12-02T01:03:47.281Z,26.52
2017-12-02T01:06:13.715Z,29.12
2017-12-02T01:08:40.132Z,29.33
2017-12-02T01:11:07.374Z,31.35
2017-12-02T01:13:33.806Z,24.80
2017-12-02T01:16:00.243Z,25.02
2017-12-02T01:18:26.698Z,25.73
2017-12-02T01:20:53.146Z,27.87
2017-12-02T01:23:19.743Z,29.90
2017-12-02T01:25:47.707Z,25.95
2017-12-02T01:28:14.143Z,27.02
2017-12-02T01:30:41.055Z,25.05
2017-12-02T01:33:07.516Z,29.10
2017-12-02T01:35:34.059Z,26.45
2017-12-02T01:38:01.224Z,19.60
2017-12-02T01:40:27.857Z,22.85
2017-12-02T01:42:55.110Z,25.45
2017-12-02T01:45:21.582Z,32.33
2017-12-02T01:47:49.469Z,28.67
2017-12-02T01:50:16.802Z,27.98
2017-12-02T01:52:43.403Z,30.10
2017-12-02T01:55:10.577Z,31.52
2017-12-02T01:57:37.259Z,28.12
2017-12-02T02:00:04.316Z,25.00
2017-12-02T02:02:31.025Z,29.35
2017-12-02T02:04:57.457Z,29.60
2017-12-02T02:07:23.887Z,29.23
2017-12-02T02:09:50.310Z,30.73
2017-12-02T02:12:16.734Z,31.80
2017-12-02T02:14:43.165Z,29.77
2017-12-02T02:17:09.643Z,30.20
2017-12-02T02:19:38.543Z,31.55
2017-12-02T02:22:06.509Z,32.50
2017-12-02T02:24:33.719Z,28.95
2017-12-02T02:27:00.148Z,32.05
2017-12-02T02:29:27.314Z,28.08
2017-12-02T02:31:54.498Z,27.98
2017-12-02T02:34:20.924Z,25.65
2017-12-02T02:36:47.342Z,27.65
2017-12-02T02:39:13.863Z,29.48
2017-12-02T02:41:41.431Z,25.37
2017-12-02T02:44:08.187Z,29.27
2017-12-02T02:46:35.446Z,31.60
2017-12-02T02:49:01.991Z,32.35
2017-12-02T02:51:28.400Z,31.83
2017-12-02T02:53:54.833Z,27.55
2017-12-02T02:56:22.029Z,27.58
2017-12-02T02:58:48.481Z,23.17
2017-12-02T03:01:14.904Z,24.80
2017-12-02T03:03:41.377Z,24.27
2017-12-02T03:06:08.536Z,28.33
2017-12-02T03:08:34.994Z,24.95
2017-12-02T03:11:02.208Z,23.52
2017-12-02T03:13:28.689Z,25.67
2017-12-02T03:15:55.159Z,27.48
2017-12-02T03:18:21.611Z,23.15
2017-12-02T03:20:48.106Z,26.40
2017-12-02T03:23:14.555Z,28.55
2017-12-02T03:25:41.013Z,26.92
2017-12-02T03:28:08.161Z,26.40
2017-12-02T03:30:34.684Z,25.50
2017-12-02T03:33:01.136Z,28.38
2017-12-02T03:35:28.438Z,27.50
2017-12-02T03:37:55.700Z,26.45
2017-12-02T03:40:22.909Z,23.97
2017-12-02T03:42:49.385Z,24.15
2017-12-02T03:45:16.079Z,27.30
2017-12-02T03:47:42.547Z,26.58
2017-12-02T03:50:09.317Z,24.25
2017-12-02T03:52:35.880Z,28.73
2017-12-02T03:55:02.514Z,24.45
2017-12-02T03:57:29.004Z,24.08
2017-12-02T03:59:55.511Z,23.92
2017-12-02T04:02:21.958Z,22.48
2017-12-02T04:04:48.808Z,25.60
2017-12-02T04:07:16.095Z,27.70
2017-12-02T04:09:43.266Z,25.92
2017-12-02T04:12:09.884Z,26.60
2017-12-02T04:14:36.351Z,24.42
2017-12-02T04:17:03.160Z,22.23
2017-12-02T04:19:29.659Z,25.35
2017-12-02T04:21:56.161Z,21.70
2017-12-02T04:24:23.400Z,21.58
2017-12-02T04:26:50.255Z,24.63
2017-12-02T04:29:17.496Z,25.48
2017-12-02T04:31:43.979Z,22.05
2017-12-02T04:34:11.191Z,20.35
2017-12-02T04:36:37.679Z,24.02
2017-12-02T04:39:04.828Z,24.80
2017-12-02T04:44:09.321Z,23.30
2017-12-02T04:46:36.495Z,25.12
2017-12-02T04:49:03.498Z,22.20
2017-12-02T04:51:30.991Z,23.25
2017-12-02T04:53:58.256Z,33.30
2017-12-02T04:56:25.533Z,23.27
2017-12-02T04:58:52.771Z,23.95
2017-12-02T05:01:19.332Z,28.55
2017-12-02T05:03:45.831Z,26.73
2017-12-02T05:06:13.082Z,31.17
2017-12-02T05:08:39.560Z,31.00
2017-12-02T05:11:07.328Z,26.62
2017-12-02T05:13:35.522Z,26.87
2017-12-02T05:16:03.388Z,26.08
2017-12-02T05:18:29.865Z,27.83
2017-12-02T05:20:57.134Z,29.10
2017-12-02T05:23:23.666Z,24.58
2017-12-02T05:25:50.846Z,31.87
2017-12-02T05:28:17.374Z,27.83
2017-12-02T05:30:43.910Z,29.40
2017-12-02T05:33:11.169Z,28.20
2017-12-02T05:35:38.051Z,23.75
2017-12-02T05:38:04.989Z,24.63
2017-12-02T05:40:31.519Z,27.70
2017-12-02T05:42:58.128Z,28.17
2017-12-02T05:45:24.598Z,30.23
2017-12-02T05:47:51.186Z,24.60
2017-12-02T05:50:17.682Z,24.48
2017-12-02T05:52:44.251Z,24.95
2017-12-02T05:55:10.888Z,28.45
2017-12-02T05:57:38.116Z,24.73
2017-12-02T06:00:05.393Z,24.73
2017-12-02T06:02:31.969Z,22.23
2017-12-02T06:04:58.550Z,23.30
2017-12-02T06:07:25.082Z,21.83
2017-12-02T06:09:51.645Z,24.63
2017-12-02T06:12:18.275Z,22.77
2017-12-02T06:14:44.825Z,23.77
2017-12-02T06:17:11.370Z,23.90
2017-12-02T06:19:37.951Z,23.87
2017-12-02T06:22:06.379Z,19.90
2017-12-02T06:24:33.650Z,20.45
2017-12-02T06:27:00.121Z,23.00
2017-12-02T06:29:26.615Z,23.55
2017-12-02T06:31:53.138Z,19.65
2017-12-02T06:34:19.619Z,24.65
2017-12-02T06:36:46.934Z,23.60
2017-12-02T06:39:13.463Z,23.75
2017-12-02T06:41:41.920Z,24.23
2017-12-02T06:44:09.287Z,25.98
2017-12-02T06:46:37.000Z,23.45
2017-12-02T06:49:05.299Z,26.02
2017-12-02T06:51:33.060Z,24.55
2017-12-02T06:53:59.517Z,33.92
2017-12-02T06:56:27.725Z,28.80
2017-12-02T06:58:59.325Z,28.40
2017-12-02T07:01:30.182Z,24.40
2017-12-02T07:03:58.012Z,25.92
2017-12-02T07:06:26.528Z,26.20
2017-12-02T07:09:04.388Z,22.67
2017-12-02T07:11:32.632Z,23.25
2017-12-02T07:14:02.262Z,21.25
2017-12-02T07:16:31.703Z,21.98
2017-12-02T07:18:58.398Z,19.90
2017-12-02T07:21:25.100Z,24.00
2017-12-02T07:23:52.387Z,23.45
2017-12-02T07:26:18.986Z,22.40
2017-12-02T07:28:46.338Z,24.17
2017-12-02T07:31:13.726Z,22.75
2017-12-02T07:33:40.970Z,25.83
2017-12-02T07:36:08.251Z,21.42
2017-12-02T07:38:34.770Z,22.15
2017-12-02T07:41:07.307Z,20.00
2017-12-02T07:43:34.163Z,21.62
2017-12-02T07:46:14.040Z,26.62
2017-12-02T07:48:41.335Z,22.58
2017-12-02T07:51:07.908Z,22.27
2017-12-02T07:53:34.636Z,25.17
2017-12-02T07:56:01.139Z,26.15
2017-12-02T07:58:28.416Z,22.20
2017-12-02T08:00:55.620Z,22.30
2017-12-02T08:03:25.171Z,21.27
2017-12-02T08:05:53.267Z,24.48
2017-12-02T08:08:20.046Z,25.42
2017-12-02T08:10:46.631Z,24.00
2017-12-02T08:13:13.105Z,22.42
2017-12-02T08:15:40.384Z,24.02
2017-12-02T08:18:09.056Z,21.85
2017-12-02T08:20:35.945Z,22.42
2017-12-02T08:23:02.777Z,22.95
2017-12-02T08:25:29.423Z,20.23
2017-12-02T08:27:56.680Z,20.05
2017-12-02T08:30:23.192Z,20.47
2017-12-02T08:32:49.750Z,20.12
2017-12-02T08:35:16.989Z,20.35
2017-12-02T08:37:43.476Z,21.45
2017-12-02T08:40:10.908Z,21.17
2017-12-02T08:42:37.471Z,29.27
2017-12-02T08:45:04.860Z,19.90
2017-12-02T08:47:31.552Z,21.87
2017-12-02T08:49:58.683Z,16.85
2017-12-02T08:52:25.919Z,15.82
2017-12-02T08:54:53.437Z,22.20
2017-12-02T08:57:21.814Z,17.93
2017-12-02T08:59:48.977Z,14.30
2017-12-02T09:02:16.002Z,13.32
2017-12-02T09:04:42.849Z,16.13
2017-12-02T09:07:10.343Z,14.95
2017-12-02T09:09:37.758Z,17.15
2017-12-02T09:12:05.829Z,16.60
2017-12-02T09:14:32.429Z,15.90
2017-12-02T09:16:58.999Z,18.37
2017-12-02T09:19:26.221Z,16.92
2017-12-02T09:21:53.752Z,16.47
2017-12-02T09:24:20.617Z,17.92
2017-12-02T09:26:47.238Z,16.27
2017-12-02T09:29:13.799Z,17.10
2017-12-02T09:31:42.524Z,21.77
2017-12-02T09:34:09.222Z,16.95
2017-12-02T09:36:39.255Z,14.47
2017-12-02T09:39:06.369Z,14.38
2017-12-02T09:41:33.687Z,13.85
2017-12-02T09:44:00.172Z,14.67
2017-12-02T09:46:26.719Z,16.40
2017-12-02T09:48:54.083Z,13.02
2017-12-02T09:51:21.642Z,13.23
2017-12-02T09:53:48.290Z,16.27
2017-12-02T09:56:15.760Z,15.25
2017-12-02T09:58:43.188Z,19.23
2017-12-02T10:01:10.498Z,18.93
2017-12-02T10:03:39.596Z,17.67
2017-12-02T10:06:07.464Z,19.70
2017-12-02T10:08:34.031Z,29.37
2017-12-02T10:11:00.546Z,20.87
2017-12-02T10:13:27.160Z,20.50
2017-12-02T10:15:55.312Z,25.20
2017-12-02T10:18:24.809Z,23.67
2017-12-02T10:20:51.389Z,18.67
2017-12-02T10:23:18.383Z,16.17
2017-12-02T10:25:45.706Z,18.25
2017-12-02T10:28:12.240Z,19.15
2017-12-02T10:30:39.752Z,15.90
2017-12-02T10:33:06.269Z,18.23
2017-12-02T10:35:33.512Z,16.97
2017-12-02T10:38:00.786Z,16.40
2017-12-02T10:40:35.047Z,17.67
2017-12-02T10:43:02.838Z,18.67
2017-12-02T10:45:30.187Z,20.37
2017-12-02T10:48:08.221Z,20.97
2017-12-02T10:50:44.644Z,20.85
2017-12-02T10:53:12.788Z,19.83
2017-12-02T10:55:39.625Z,21.40
2017-12-02T10:58:12.266Z,24.83
2017-12-02T11:00:39.437Z,20.08
2017-12-02T11:03:07.143Z,20.92
2017-12-02T11:05:35.323Z,21.37
2017-12-02T11:08:02.780Z,21.12
2017-12-02T11:10:31.336Z,19.63
2017-12-02T11:12:59.672Z,18.10
2017-12-02T11:15:28.754Z,18.42
2017-12-02T11:17:58.089Z,19.00
2017-12-02T11:20:28.559Z,20.37
2017-12-02T11:23:00.139Z,20.17
2017-12-02T11:25:27.539Z,22.37
2017-12-02T11:27:56.935Z,21.10
2017-12-02T11:30:25.325Z,22.37
2017-12-02T11:32:52.486Z,20.47
2017-12-02T11:35:19.741Z,20.63
2017-12-02T11:37:47.217Z,21.67
2017-12-02T11:40:14.002Z,23.65
2017-12-02T11:42:42.771Z,22.20
2017-12-02T11:45:09.816Z,22.63
2017-12-02T11:47:38.678Z,21.80
2017-12-02T11:50:07.835Z,23.40
2017-12-02T11:52:35.400Z,22.02
2017-12-02T11:55:04.667Z,21.43
2017-12-02T11:57:31.178Z,23.00
2017-12-02T11:59:58.399Z,22.00
2017-12-02T12:02:26.256Z,22.35
2017-12-02T12:04:52.764Z,23.17
2017-12-02T12:07:20.037Z,23.10
2017-12-02T12:09:46.582Z,23.10
2017-12-02T12:12:13.853Z,23.15
2017-12-02T12:14:41.259Z,24.67
2017-12-02T12:17:07.837Z,23.87
2017-12-02T12:19:34.945Z,21.87
2017-12-02T12:22:02.465Z,25.30
2017-12-02T12:24:29.729Z,25.60
2017-12-02T12:27:00.921Z,25.67
2017-12-02T12:29:29.949Z,29.63
2017-12-02T12:31:56.692Z,26.70
2017-12-02T12:34:23.263Z,26.50
2017-12-02T12:36:49.770Z,28.37
2017-12-02T12:39:16.815Z,27.47
2017-12-02T12:41:43.306Z,26.27
2017-12-02T12:44:11.667Z,26.25
2017-12-02T12:46:38.811Z,27.60
2017-12-02T12:49:07.217Z,27.57
2017-12-02T12:51:33.688Z,26.40
2017-12-02T12:54:01.263Z,26.07
2017-12-02T12:56:28.703Z,25.07
2017-12-02T12:58:55.406Z,26.70
2017-12-02T13:01:22.384Z,26.43
2017-12-02T13:03:49.015Z,27.50
2017-12-02T13:06:15.543Z,28.80
2017-12-02T13:08:42.107Z,28.97
2017-12-02T13:11:08.705Z,27.15
2017-12-02T13:13:36.094Z,27.23
2017-12-02T13:16:04.643Z,29.07
2017-12-02T13:18:31.995Z,21.60
2017-12-02T13:20:59.481Z,27.00
2017-12-02T13:23:26.898Z,26.73
2017-12-02T13:25:53.482Z,24.30
2017-12-02T13:28:21.150Z,22.40
2017-12-02T13:30:47.762Z,25.63
2017-12-02T13:33:15.058Z,26.52
2017-12-02T13:35:41.606Z,25.80
2017-12-02T13:38:08.898Z,22.67
2017-12-02T13:40:35.503Z,17.50
2017-12-02T13:43:02.083Z,21.20
2017-12-02T13:45:28.581Z,24.60
2017-12-02T13:47:55.906Z,22.10
2017-12-02T13:50:22.430Z,20.48
2017-12-02T13:52:49.009Z,22.87
2017-12-02T13:55:15.563Z,21.83
2017-12-02T13:57:42.258Z,20.00
2017-12-02T14:00:09.638Z,21.33
2017-12-02T14:02:36.134Z,18.13
2017-12-02T14:05:03.116Z,21.73
2017-12-02T14:07:30.495Z,20.47
2017-12-02T14:09:57.139Z,20.40
2017-12-02T14:12:25.121Z,19.13
2017-12-02T14:14:52.523Z,17.87
2017-12-02T14:17:19.173Z,23.40
2017-12-02T14:19:45.791Z,24.30
2017-12-02T14:22:12.305Z,19.33
2017-12-02T14:24:38.856Z,20.20
2017-12-02T14:27:06.644Z,19.73
2017-12-02T14:29:33.436Z,21.80
2017-12-02T14:32:00.792Z,18.10
2017-12-02T14:34:28.140Z,21.87
2017-12-02T14:36:54.772Z,20.67
2017-12-02T14:39:21.679Z,20.80
2017-12-02T14:41:49.043Z,22.33
2017-12-02T14:44:15.596Z,21.97
2017-12-02T14:46:42.246Z,20.80
2017-12-02T14:49:09.112Z,20.33
2017-12-02T14:51:35.975Z,19.57
2017-12-02T14:54:02.919Z,20.50
2017-12-02T14:56:30.266Z,21.80
2017-12-02T14:58:56.973Z,21.83
2017-12-02T15:01:23.555Z,21.80
2017-12-02T15:03:50.618Z,21.23
2017-12-02T15:06:17.374Z,20.25
2017-12-02T15:08:44.043Z,22.67
2017-12-02T15:11:10.714Z,19.80
2017-12-02T15:13:37.469Z,24.12
2017-12-02T15:16:04.655Z,22.10
2017-12-02T15:18:32.132Z,20.23
2017-12-02T15:20:59.464Z,22.00
2017-12-02T15:23:25.971Z,23.00
2017-12-02T15:25:52.601Z,21.02
2017-12-02T15:28:19.411Z,24.40
2017-12-02T15:30:46.676Z,21.80
2017-12-02T15:33:13.774Z,21.13
2017-12-02T15:35:40.543Z,21.33
2017-12-02T15:38:07.260Z,21.50
2017-12-02T15:40:33.989Z,25.55
2017-12-02T15:43:00.706Z,23.95
2017-12-02T15:45:27.442Z,22.15
2017-12-02T15:47:54.841Z,21.20
2017-12-02T15:50:21.406Z,20.10
2017-12-02T15:52:48.751Z,25.90
2017-12-02T15:55:15.367Z,21.27
2017-12-02T15:57:41.920Z,21.63
2017-12-02T16:00:08.459Z,24.33
2017-12-02T16:02:35.195Z,24.40
2017-12-02T16:05:01.779Z,26.37
2017-12-02T16:07:28.295Z,24.67
2017-12-02T16:09:55.512Z,26.13
2017-12-02T16:12:22.771Z,22.33
2017-12-02T16:14:49.246Z,26.10
2017-12-02T16:17:16.505Z,24.73
2017-12-02T16:19:43.058Z,26.57
2017-12-02T16:22:09.521Z,22.77
2017-12-02T16:24:36.098Z,24.47
2017-12-02T16:27:03.180Z,24.77
2017-12-02T16:29:29.847Z,25.40
2017-12-02T16:31:57.068Z,25.97
2017-12-02T16:34:23.589Z,25.58
2017-12-02T16:36:50.487Z,26.37
2017-12-02T16:39:17.011Z,25.50
2017-12-02T16:41:43.561Z,26.70
2017-12-02T16:44:10.072Z,26.83
2017-12-02T16:46:36.677Z,25.73
2017-12-02T16:49:04.441Z,27.95
2017-12-02T16:51:31.975Z,23.70
2017-12-02T16:53:58.498Z,26.60
2017-12-02T16:56:25.809Z,25.90
2017-12-02T16:58:52.261Z,27.10
2017-12-02T17:01:18.710Z,28.43
2017-12-02T17:03:45.274Z,29.20
2017-12-02T17:06:11.815Z,30.90
2017-12-02T17:08:38.310Z,31.27
2017-12-02T17:11:05.301Z,29.87
2017-12-02T17:13:31.747Z,30.10
2017-12-02T17:15:59.053Z,30.10
2017-12-02T17:18:25.559Z,29.10
2017-12-02T17:20:52.112Z,28.33
2017-12-02T17:23:18.678Z,23.27
2017-12-02T17:25:45.935Z,28.50
2017-12-02T17:28:12.492Z,29.00
2017-12-02T17:30:39.024Z,30.40
2017-12-02T17:33:06.823Z,26.57
2017-12-02T17:35:34.023Z,32.03
2017-12-02T17:38:00.451Z,27.93
2017-12-02T17:40:26.943Z,30.73
2017-12-02T17:42:53.482Z,27.17
2017-12-02T17:45:20.904Z,28.27
2017-12-02T17:47:47.327Z,27.23
2017-12-02T17:50:13.775Z,32.17
2017-12-02T17:52:40.286Z,29.30
2017-12-02T17:55:07.459Z,29.33
2017-12-02T17:57:33.896Z,30.10
2017-12-02T18:00:00.406Z,26.80
2017-12-02T18:02:26.840Z,26.07
2017-12-02T18:04:54.061Z,28.30
2017-12-02T18:07:20.571Z,27.40
2017-12-02T18:09:46.967Z,27.60
2017-12-02T18:12:13.374Z,28.20
2017-12-02T18:14:39.785Z,28.87
2017-12-02T18:17:06.478Z,29.10
2017-12-02T18:19:32.909Z,29.03
2017-12-02T18:22:00.123Z,30.57
2017-12-02T18:24:26.556Z,30.17
2017-12-02T18:26:53.107Z,31.80
2017-12-02T18:29:19.588Z,25.60
2017-12-02T18:31:46.093Z,25.60
2017-12-02T18:34:12.581Z,24.80
2017-12-02T18:36:39.815Z,21.97
2017-12-02T18:39:07.146Z,21.10
2017-12-02T18:41:34.277Z,23.23
2017-12-02T18:44:00.793Z,22.60
2017-12-02T18:46:27.440Z,23.17
2017-12-02T18:48:53.954Z,24.10
2017-12-02T18:51:20.410Z,24.03
2017-12-02T18:53:46.968Z,26.23
2017-12-02T18:56:13.433Z,19.50
2017-12-02T18:58:39.857Z,23.47
2017-12-02T19:01:06.916Z,25.30
2017-12-02T19:03:33.371Z,25.40
2017-12-02T19:05:59.818Z,24.00
2017-12-02T19:08:26.217Z,25.87
2017-12-02T19:10:52.712Z,26.63
2017-12-02T19:13:19.862Z,24.80
2017-12-02T19:15:46.322Z,23.37
2017-12-02T19:18:13.581Z,24.27
2017-12-02T19:20:40.042Z,23.87
2017-12-02T19:23:07.275Z,26.70
2017-12-02T19:25:33.729Z,24.40
2017-12-02T19:28:00.903Z,25.13
2017-12-02T19:30:27.365Z,25.60
2017-12-02T19:32:53.815Z,26.63
2017-12-02T19:35:20.389Z,23.00
2017-12-02T19:37:46.819Z,23.60
2017-12-02T19:40:13.250Z,28.03
2017-12-02T19:42:39.862Z,26.47
2017-12-02T19:45:06.758Z,25.47
2017-12-02T19:47:33.190Z,24.30
2017-12-02T19:49:59.635Z,25.92
2017-12-02T19:52:26.192Z,23.27
2017-12-02T19:54:52.711Z,28.03
2017-12-02T19:57:19.187Z,25.67
2017-12-02T19:59:45.881Z,27.30
2017-12-02T20:02:13.084Z,26.30
2017-12-02T20:04:39.599Z,29.20
2017-12-02T20:07:06.856Z,28.40
2017-12-02T20:09:33.431Z,26.33
2017-12-02T20:11:59.911Z,26.37
2017-12-02T20:14:26.389Z,26.70
2017-12-02T20:16:54.596Z,23.60
2017-12-02T20:19:25.255Z,25.90
2017-12-02T20:21:52.026Z,27.23
2017-12-02T20:24:18.472Z,25.30
2017-12-02T20:26:45.046Z,26.67
2017-12-02T20:29:12.276Z,25.40
2017-12-02T20:31:38.715Z,26.67
2017-12-02T20:34:05.898Z,26.53
2017-12-02T20:36:32.417Z,26.57
2017-12-02T20:38:58.865Z,27.30
2017-12-02T20:41:25.439Z,26.87
2017-12-02T20:43:51.879Z,25.60
2017-12-02T20:46:18.340Z,26.17
2017-12-02T20:48:44.842Z,25.80
2017-12-02T20:51:11.524Z,30.43
2017-12-02T20:53:38.754Z,25.30
2017-12-02T20:56:06.041Z,25.60
2017-12-02T20:58:33.299Z,24.80
2017-12-02T21:01:00.608Z,27.00
2017-12-02T21:03:27.159Z,27.27
2017-12-02T21:05:53.652Z,27.93
2017-12-02T21:08:20.140Z,31.57
2017-12-02T21:10:47.360Z,28.10
2017-12-02T21:13:13.769Z,26.87
2017-12-02T21:15:40.239Z,26.67
2017-12-02T21:18:07.101Z,27.43
2017-12-02T21:20:33.646Z,26.13
2017-12-02T21:23:00.084Z,26.10
2017-12-02T21:25:26.532Z,27.43
2017-12-02T21:27:53.002Z,27.83
2017-12-02T21:30:19.510Z,25.03
2017-12-02T21:32:45.994Z,26.40
2017-12-02T21:35:13.741Z,25.47
2017-12-02T21:37:40.951Z,29.13
2017-12-02T21:40:08.367Z,24.20
2017-12-02T21:42:34.906Z,26.07
2017-12-02T21:45:02.279Z,27.00
2017-12-02T21:47:29.533Z,24.37
2017-12-02T21:49:55.964Z,26.17
2017-12-02T21:52:22.425Z,27.87
2017-12-02T21:54:48.897Z,28.67
2017-12-02T21:57:16.080Z,25.03
2017-12-02T21:59:42.525Z,27.10
2017-12-02T22:02:09.116Z,26.50
2017-12-02T22:04:35.546Z,26.93
2017-12-02T22:07:02.040Z,27.30
2017-12-02T22:09:28.570Z,29.63
2017-12-02T22:11:54.987Z,29.20
2017-12-02T22:14:21.467Z,29.50
2017-12-02T22:16:48.663Z,23.53
2017-12-02T22:19:15.917Z,29.37
2017-12-02T22:21:42.382Z,28.50
2017-12-02T22:24:09.132Z,26.73
2017-12-02T22:26:37.080Z,29.40
2017-12-02T22:29:03.783Z,28.90
2017-12-02T22:31:31.011Z,30.27
2017-12-02T22:33:57.461Z,30.77
2017-12-02T22:36:23.948Z,26.63
2017-12-02T22:38:50.441Z,28.77
2017-12-02T22:41:17.650Z,27.17
2017-12-02T22:43:44.200Z,24.83
2017-12-02T22:46:11.474Z,24.87
2017-12-02T22:48:37.988Z,28.53
2017-12-02T22:51:05.158Z,29.57
2017-12-02T22:53:32.621Z,28.77
2017-12-02T22:55:59.196Z,27.00
2017-12-02T22:58:26.388Z,26.77
2017-12-02T23:00:52.872Z,29.30
2017-12-02T23:03:20.126Z,32.20
2017-12-02T23:05:46.596Z,29.47
2017-12-02T23:08:13.041Z,28.70
2017-12-02T23:10:39.495Z,29.57
2017-12-02T23:13:06.835Z,29.17
2017-12-02T23:15:34.142Z,30.00
2017-12-02T23:18:01.334Z,31.33
2017-12-02T23:20:27.789Z,29.63
2017-12-02T23:22:54.221Z,28.57
2017-12-02T23:25:20.714Z,30.00
2017-12-02T23:27:47.894Z,29.03
2017-12-02T23:30:14.310Z,30.30
2017-12-02T23:32:41.591Z,26.33
2017-12-02T23:35:08.791Z,28.77
2017-12-02T23:37:35.214Z,27.87
2017-12-02T23:40:01.716Z,30.20
2017-12-02T23:42:28.891Z,25.37
2017-12-02T23:44:56.066Z,28.70
2017-12-02T23:47:22.519Z,31.90
2017-12-02T23:49:48.959Z,28.90
2017-12-02T23:52:15.397Z,29.50
2017-12-02T23:54:41.782Z,28.00
2017-12-02T23:57:08.321Z,28.00
2017-12-02T23:59:34.805Z,26.13
